Time;durP1;ratioP1;P1;durP2;ratioP2;P2;SDS_P1;SDS_P2;PMS_P1;PMS_P2;Temp;Humidity;BMP_temperature;BMP_pressure;BME280_temperature;BME280_humidity;BME280_pressure;Samples;Min_cycle;Max_cycle;Signal;HPM_P1;HPM_P2
2022/08/05 00:01:20;;;;;;;24.52;14.90;;;;;;;22.51;62.54;99998.00;5110717;28;20040;-41
2022/08/05 00:03:47;;;;;;;21.58;13.65;;;;;;;22.49;62.46;99992.84;5111625;28;20043;-41
2022/08/05 00:06:14;;;;;;;25.10;14.73;;;;;;;22.47;62.50;99993.91;5105091;28;20524;-41
2022/08/05 00:08:40;;;;;;;21.65;14.23;;;;;;;22.45;62.58;100002.00;5104776;27;20040;-41
2022/08/05 00:11:10;;;;;;;24.35;14.55;;;;;;;22.43;62.51;99992.47;5106963;28;20066;-41
2022/08/05 00:13:37;;;;;;;24.27;15.45;;;;;;;22.44;62.60;99999.47;5101242;28;20047;-40
2022/08/05 00:16:04;;;;;;;22.38;13.57;;;;;;;22.42;62.72;100004.03;5112736;28;20118;-40
2022/08/05 00:18:30;;;;;;;21.45;14.10;;;;;;;22.40;62.81;99999.69;5108340;28;20553;-42
2022/08/05 00:21:00;;;;;;;26.77;14.45;;;;;;;22.34;62.90;99994.91;5104323;28;20554;-40
2022/08/05 00:23:25;;;;;;;17.73;13.73;;;;;;;22.36;63.25;100005.34;5106715;28;20039;-40
2022/08/05 00:25:51;;;;;;;18.58;13.98;;;;;;;22.32;63.33;100007.41;5110291;28;20039;-40
2022/08/05 00:28:17;;;;;;;22.30;14.48;;;;;;;22.28;63.66;99999.81;5089024;28;20040;-40
2022/08/05 00:30:43;;;;;;;23.23;14.00;;;;;;;22.30;63.66;100006.66;5105979;28;20163;-41
2022/08/05 00:33:10;;;;;;;26.10;14.95;;;;;;;22.28;63.80;100000.66;5107816;28;20054;-41
2022/08/05 00:35:36;;;;;;;28.00;15.95;;;;;;;22.28;63.87;100002.47;5099208;28;20035;-41
2022/08/05 00:38:02;;;;;;;21.88;14.35;;;;;;;22.29;63.77;99999.72;5104290;28;20557;-41
2022/08/05 00:40:28;;;;;;;26.95;15.15;;;;;;;22.30;64.13;100001.38;5103110;28;20031;-41
2022/08/05 00:42:56;;;;;;;23.92;14.65;;;;;;;22.32;63.90;99998.63;5107897;28;20035;-40
2022/08/05 00:45:22;;;;;;;26.63;15.50;;;;;;;22.33;63.91;99997.66;5109610;28;20088;-41
2022/08/05 00:47:47;;;;;;;21.02;15.05;;;;;;;22.30;63.91;99995.22;5103747;28;20273;-40
2022/08/05 00:50:13;;;;;;;25.25;14.75;;;;;;;22.31;63.88;100000.41;5109041;28;20504;-40
2022/08/05 00:52:39;;;;;;;24.17;14.85;;;;;;;22.29;63.85;100001.50;5107000;28;20039;-41
2022/08/05 00:55:05;;;;;;;24.35;14.63;;;;;;;22.28;63.96;100003.31;5109609;28;20521;-41
2022/08/05 00:57:31;;;;;;;23.27;14.73;;;;;;;22.26;64.15;100002.59;5112487;28;20066;-41
2022/08/05 00:59:57;;;;;;;21.25;14.05;;;;;;;22.30;64.38;100005.81;5088470;28;20043;-42
2022/08/05 01:02:22;;;;;;;24.98;14.23;;;;;;;22.22;64.57;99993.19;5105913;28;20040;-41
2022/08/05 01:04:49;;;;;;;27.15;15.10;;;;;;;22.26;64.32;100001.75;5101008;28;20031;-42
2022/08/05 01:07:15;;;;;;;23.30;14.95;;;;;;;22.23;64.27;99997.53;5103358;28;20039;-41
2022/08/05 01:09:41;;;;;;;24.27;14.70;;;;;;;22.21;64.11;100002.09;5104964;28;20046;-40
2022/08/05 01:12:12;;;;;;;24.92;15.25;;;;;;;22.19;64.40;100001.34;5106337;28;20047;-41
2022/08/05 01:14:45;;;;;;;23.75;14.77;;;;;;;22.19;64.32;99998.72;5102032;28;20495;-43
2022/08/05 01:17:20;;;;;;;25.30;15.75;;;;;;;22.22;64.06;99992.34;5090674;28;20066;-41
2022/08/05 01:20:10;;;;;;;26.85;14.65;;;;;;;22.25;63.88;99997.41;5110420;28;20133;-41
2022/08/05 01:22:44;;;;;;;24.02;15.32;;;;;;;22.28;63.67;99997.19;5103501;28;20503;-41
2022/08/05 01:25:40;;;;;;;24.90;14.95;;;;;;;22.29;63.69;99996.22;5112358;27;20123;-42
2022/08/05 01:28:33;;;;;;;26.35;14.93;;;;;;;22.29;63.64;100005.00;5110874;28;20078;-41
2022/08/05 01:31:14;;;;;;;25.80;15.73;;;;;;;22.28;63.66;100011.28;5112109;28;20521;-40
2022/08/05 01:33:50;;;;;;;23.10;14.88;;;;;;;22.28;63.72;100007.78;5110972;28;20071;-41
2022/08/05 01:36:18;;;;;;;20.00;14.27;;;;;;;22.27;63.84;100014.88;5111209;28;20061;-41
2022/08/05 01:38:46;;;;;;;22.50;14.13;;;;;;;22.25;63.65;100000.88;5111215;28;20043;-42
2022/08/05 01:41:13;;;;;;;21.27;14.43;;;;;;;22.26;63.98;100007.88;5110653;28;20043;-42
2022/08/05 01:43:40;;;;;;;19.43;14.10;;;;;;;22.18;63.92;99989.09;5110980;28;20036;-40
2022/08/05 01:46:06;;;;;;;23.42;15.23;;;;;;;22.25;63.94;100008.00;5111584;28;20043;-40
2022/08/05 01:48:34;;;;;;;22.02;14.38;;;;;;;22.23;63.99;99999.34;5110793;28;20039;-40
2022/08/05 01:51:01;;;;;;;22.17;14.13;;;;;;;22.21;63.95;100004.75;5090320;28;20443;-41
2022/08/05 01:53:28;;;;;;;19.67;14.57;;;;;;;22.19;63.90;100004.00;5107089;28;20135;-41
2022/08/05 01:55:57;;;;;;;25.08;16.05;;;;;;;22.18;64.02;100001.50;5097641;28;20092;-41
2022/08/05 01:58:24;;;;;;;24.33;15.50;;;;;;;22.17;64.03;100016.53;5112091;28;20040;-42
2022/08/05 02:00:51;;;;;;;23.95;15.27;;;;;;;22.15;64.06;100004.38;5110490;28;20046;-41
2022/08/05 02:03:20;;;;;;;24.00;15.10;;;;;;;22.11;64.24;100014.38;5110500;28;20031;-41
2022/08/05 02:05:50;;;;;;;22.33;15.00;;;;;;;22.07;64.30;99998.84;5111063;28;20069;-41
2022/08/05 02:08:16;;;;;;;25.43;16.23;;;;;;;22.05;64.54;99998.09;5110446;28;20050;-41
2022/08/05 02:10:44;;;;;;;24.60;15.18;;;;;;;22.00;64.73;99994.94;5110976;28;20043;-40
2022/08/05 02:13:14;;;;;;;24.38;16.65;;;;;;;21.96;64.70;100008.44;5110059;28;20138;-40
2022/08/05 02:15:54;;;;;;;24.55;16.52;;;;;;;21.94;64.89;100010.34;5110683;28;20066;-40
2022/08/05 02:18:25;;;;;;;26.58;16.65;;;;;;;21.92;65.07;100001.66;5110719;28;20071;-40
2022/08/05 02:21:04;;;;;;;27.40;18.98;;;;;;;21.84;65.15;99985.50;5110019;28;20196;-41
2022/08/05 02:23:30;;;;;;;;;;;;;;;21.90;65.21;100003.56;5111235;28;20074;-40
2022/08/05 02:25:56;;;;;;;21.75;15.57;;;;;;;21.86;65.18;100004.78;5110179;28;19955;-40
2022/08/05 02:28:24;;;;;;;26.33;16.60;;;;;;;21.88;65.61;100010.78;5110138;28;20043;-41
2022/08/05 02:30:55;;;;;;;27.30;15.50;;;;;;;21.88;65.62;100018.72;5111478;28;20118;-42
2022/08/05 02:33:22;;;;;;;20.33;15.80;;;;;;;21.88;65.65;100009.94;5110417;28;20451;-42
2022/08/05 02:35:48;;;;;;;21.27;15.48;;;;;;;21.91;65.94;100017.66;5110965;28;20130;-42
2022/08/05 02:38:14;;;;;;;22.05;15.63;;;;;;;21.93;66.11;100018.38;5110227;28;20131;-41
2022/08/05 02:40:41;;;;;;;22.42;16.25;;;;;;;21.94;66.23;100023.59;5109687;28;20418;-40
2022/08/05 02:43:12;;;;;;;24.30;17.67;;;;;;;21.98;66.23;100020.72;5109712;28;20464;-39
2022/08/05 02:45:39;;;;;;;24.27;15.85;;;;;;;21.98;66.20;100024.22;5109904;28;20035;-40
2022/08/05 02:48:06;;;;;;;26.67;18.63;;;;;;;21.99;66.17;100028.53;5109779;28;20104;-41
2022/08/05 02:50:32;;;;;;;22.42;14.95;;;;;;;22.00;66.34;100030.22;5109063;28;20507;-42
2022/08/05 02:52:58;;;;;;;26.35;17.65;;;;;;;22.00;66.23;100035.53;5111065;28;20035;-41
2022/08/05 02:55:27;;;;;;;28.10;16.80;;;;;;;22.00;65.99;100035.53;5109821;28;20055;-40
2022/08/05 02:57:53;;;;;;;22.77;16.55;;;;;;;22.05;66.27;100035.16;5109890;28;20067;-40
2022/08/05 03:00:19;;;;;;;28.85;16.45;;;;;;;22.08;66.37;100035.78;5109206;28;20035;-41
2022/08/05 03:02:47;;;;;;;27.30;16.58;;;;;;;22.10;66.40;100040.97;5109574;28;20392;-40
2022/08/05 03:05:14;;;;;;;20.67;16.70;;;;;;;22.12;66.49;100047.84;5109390;28;20422;-41
2022/08/05 03:07:40;;;;;;;29.15;16.75;;;;;;;22.16;66.44;100048.44;5110246;28;20061;-41
2022/08/05 03:10:07;;;;;;;24.23;16.13;;;;;;;22.18;66.39;100044.72;5110458;28;20073;-42
2022/08/05 03:12:35;;;;;;;29.10;19.20;;;;;;;21.96;66.15;100003.16;5110449;28;20057;-41
2022/08/05 03:15:02;;;;;;;26.27;16.83;;;;;;;22.28;66.03;100051.00;5110789;28;20043;-41
2022/08/05 03:17:29;;;;;;;24.85;15.63;;;;;;;22.38;66.07;100056.44;5110402;28;20031;-40
2022/08/05 03:19:55;;;;;;;24.35;16.88;;;;;;;22.42;65.90;100054.38;5093483;28;20581;-41
2022/08/05 03:22:21;;;;;;;23.98;16.63;;;;;;;22.48;65.70;100057.41;5109539;28;20122;-41
2022/08/05 03:24:49;;;;;;;26.55;16.55;;;;;;;22.56;65.33;100049.69;5108847;28;20143;-41
2022/08/05 03:27:15;;;;;;;26.42;16.50;;;;;;;22.68;65.09;100063.81;5110197;28;20085;-41
2022/08/05 03:29:41;;;;;;;29.02;18.52;;;;;;;22.75;64.67;100054.44;5109323;28;20047;-41
2022/08/05 03:32:07;;;;;;;26.27;17.83;;;;;;;22.85;64.10;100058.06;5109958;28;20047;-42
2022/08/05 03:34:34;;;;;;;25.60;18.10;;;;;;;22.95;63.77;100059.00;5110241;28;20044;-41
2022/08/05 03:37:01;;;;;;;30.65;19.30;;;;;;;23.03;63.33;100053.91;5108851;28;20047;-41
2022/08/05 03:39:27;;;;;;;29.50;18.23;;;;;;;23.08;62.97;100059.69;5109986;28;20067;-42
2022/08/05 03:41:53;;;;;;;27.65;18.23;;;;;;;22.99;62.58;100043.69;5109986;28;20611;-41
2022/08/05 03:44:19;;;;;;;31.45;17.80;;;;;;;23.21;62.47;100071.03;5109986;28;20500;-41
2022/08/05 03:46:45;;;;;;;23.25;17.25;;;;;;;23.21;62.46;100056.91;5109995;28;20046;-42
2022/08/05 03:49:10;;;;;;;23.80;16.58;;;;;;;23.33;62.31;100073.66;5110199;28;20042;-42
2022/08/05 03:51:50;;;;;;;28.20;17.95;;;;;;;23.39;62.06;100062.56;5109882;28;20540;-41
2022/08/05 03:54:33;;;;;;;26.88;18.45;;;;;;;23.45;61.83;100073.53;5108264;28;20032;-42
2022/08/05 03:56:59;;;;;;;24.10;17.13;;;;;;;23.51;61.69;100083.66;5108992;28;20126;-41
2022/08/05 03:59:34;;;;;;;28.65;17.88;;;;;;;23.57;61.19;100082.31;5091654;28;20031;-42
2022/08/05 04:02:01;;;;;;;28.70;19.27;;;;;;;23.59;61.02;100083.03;5109476;28;20522;-41
2022/08/05 04:04:28;;;;;;;27.30;17.33;;;;;;;23.64;60.75;100087.00;5108916;28;20043;-41
2022/08/05 04:06:54;;;;;;;23.80;17.52;;;;;;;23.71;60.58;100083.84;5110482;28;20122;-41
2022/08/05 04:09:20;;;;;;;24.33;16.77;;;;;;;23.76;60.49;100087.78;5109824;28;20069;-40
2022/08/05 04:11:46;;;;;;;29.05;19.42;;;;;;;23.75;60.31;100091.44;5108261;28;20039;-41
2022/08/05 04:14:12;;;;;;;28.25;19.02;;;;;;;23.75;60.34;100091.44;5108750;28;20564;-41
2022/08/05 04:16:38;;;;;;;28.10;20.17;;;;;;;23.78;60.23;100093.81;5108538;28;20039;-41
2022/08/05 04:19:04;;;;;;;30.05;19.23;;;;;;;23.86;60.11;100094.06;5110307;28;20095;-42
2022/08/05 04:21:30;;;;;;;37.30;19.38;;;;;;;23.81;59.95;100075.00;5112868;28;20039;-42
2022/08/05 04:23:59;;;;;;;27.25;17.85;;;;;;;24.00;59.67;100101.72;5113287;28;20418;-42
2022/08/05 04:26:24;;;;;;;27.90;18.35;;;;;;;23.80;59.63;100062.69;5113676;28;20122;-42
2022/08/05 04:28:50;;;;;;;31.45;18.38;;;;;;;24.05;59.51;100096.00;5113228;28;20138;-41
2022/08/05 04:31:16;;;;;;;26.25;18.42;;;;;;;24.13;59.45;100106.00;5113043;28;20537;-41
2022/08/05 04:33:42;;;;;;;32.10;18.90;;;;;;;24.17;59.57;100105.66;5112777;28;20459;-42
2022/08/05 04:36:08;;;;;;;23.83;17.50;;;;;;;24.15;59.63;100099.56;5113217;28;20036;-43
2022/08/05 04:38:36;;;;;;;28.80;18.42;;;;;;;24.03;59.44;100060.75;5113061;28;20039;-40
2022/08/05 04:41:01;;;;;;;26.55;16.58;;;;;;;24.32;59.44;100108.81;5112877;28;20043;-41
2022/08/05 04:43:27;;;;;;;25.95;18.02;;;;;;;24.33;59.26;100105.19;5113519;28;20031;-42
2022/08/05 04:45:53;;;;;;;31.02;19.50;;;;;;;24.33;59.23;100103.38;5112901;28;20046;-41
2022/08/05 04:48:19;;;;;;;32.03;17.67;;;;;;;24.33;59.14;100097.22;5113137;28;20112;-42
2022/08/05 04:50:47;;;;;;;24.98;18.52;;;;;;;24.35;59.10;100095.25;5112520;28;20519;-41
2022/08/05 04:53:17;;;;;;;30.02;18.75;;;;;;;24.36;59.25;100100.44;5111773;28;20073;-42
2022/08/05 04:55:44;;;;;;;26.60;17.55;;;;;;;24.36;59.25;100100.44;5112581;28;20039;-42
2022/08/05 04:58:12;;;;;;;32.50;20.42;;;;;;;24.40;59.01;100099.22;5113143;28;20035;-43
2022/08/05 05:00:39;;;;;;;28.63;19.00;;;;;;;24.36;58.80;100086.31;5112863;28;20035;-42
2022/08/05 05:03:07;;;;;;;24.87;17.97;;;;;;;24.44;59.00;100097.97;5112959;28;20040;-42
2022/08/05 05:05:34;;;;;;;29.38;19.00;;;;;;;24.31;59.06;100069.91;5094244;28;20065;-42
2022/08/05 05:08:02;;;;;;;31.08;19.98;;;;;;;24.41;58.79;100094.75;5112014;28;20039;-43
2022/08/05 05:10:30;;;;;;;28.98;19.92;;;;;;;24.50;58.77;100104.59;5112333;28;20039;-45
2022/08/05 05:12:56;;;;;;;32.55;19.80;;;;;;;24.43;58.69;100087.50;5112483;28;20526;-41
2022/08/05 05:15:22;;;;;;;29.42;19.55;;;;;;;24.60;58.75;100109.97;5112513;28;20043;-41
2022/08/05 05:17:47;;;;;;;38.30;22.98;;;;;;;24.64;58.43;100114.06;5112999;28;20547;-40
2022/08/05 05:20:13;;;;;;;28.15;18.92;;;;;;;24.68;58.46;100108.34;5111563;28;20172;-41
2022/08/05 05:22:40;;;;;;;31.13;19.13;;;;;;;24.73;58.60;100110.59;5112603;28;20422;-41
2022/08/05 05:25:07;;;;;;;33.65;19.20;;;;;;;24.73;58.77;100107.94;5112876;28;20040;-41
2022/08/05 05:27:35;;;;;;;36.25;18.50;;;;;;;24.74;58.56;100097.19;5111428;28;20054;-42
2022/08/05 05:30:01;;;;;;;26.58;18.40;;;;;;;24.78;58.43;100103.91;5111720;28;20534;-40
2022/08/05 05:32:28;;;;;;;32.70;20.40;;;;;;;24.80;58.48;100103.78;5110822;28;20031;-41
2022/08/05 05:34:54;;;;;;;29.73;19.05;;;;;;;24.83;58.13;100107.00;5092647;28;20039;-43
2022/08/05 05:37:20;;;;;;;27.73;19.88;;;;;;;24.78;58.16;100089.75;5112275;28;20047;-41
2022/08/05 05:39:47;;;;;;;35.15;20.20;;;;;;;24.80;58.13;100086.00;5112340;28;20040;-42
2022/08/05 05:42:16;;;;;;;36.15;20.70;;;;;;;24.99;57.99;100097.72;5112096;28;20039;-43
2022/08/05 05:44:42;;;;;;;29.27;19.67;;;;;;;25.04;57.71;100104.31;5111314;28;20062;-41
2022/08/05 05:47:08;;;;;;;30.55;18.95;;;;;;;25.11;57.71;100105.47;5112156;28;20043;-41
2022/08/05 05:49:33;;;;;;;33.42;19.25;;;;;;;25.18;57.27;100105.75;5111876;28;20161;-40
2022/08/05 05:52:00;;;;;;;31.58;19.73;;;;;;;25.30;57.19;100107.34;5111516;28;20051;-43
2022/08/05 05:54:26;;;;;;;26.00;18.90;;;;;;;25.49;56.59;100107.38;5110552;28;20046;-42
2022/08/05 05:56:51;;;;;;;30.02;19.58;;;;;;;25.44;56.38;100075.00;5112050;28;20039;-42
2022/08/05 05:59:18;;;;;;;28.58;19.90;;;;;;;25.81;55.75;100115.16;5111824;28;20039;-42
2022/08/05 06:01:45;;;;;;;27.85;18.67;;;;;;;26.01;55.35;100113.38;5111753;28;20404;-43
2022/08/05 06:04:12;;;;;;;31.80;19.88;;;;;;;26.08;54.75;100086.00;5111504;28;20040;-41
2022/08/05 06:06:43;;;;;;;30.00;19.15;;;;;;;26.49;54.62;100108.00;5109656;28;20035;-42
2022/08/05 06:09:10;;;;;;;35.45;22.00;;;;;;;26.85;53.79;100115.19;5109705;28;20683;-42
2022/08/05 06:11:36;;;;;;;26.13;17.58;;;;;;;27.31;52.89;100113.50;5110557;28;20044;-43
2022/08/05 06:14:02;;;;;;;30.17;19.02;;;;;;;27.74;52.15;100112.81;5111592;27;20039;-42
2022/08/05 06:16:28;;;;;;;26.48;19.92;;;;;;;28.22;50.79;100120.44;5111637;27;20531;-42
2022/08/05 06:18:56;;;;;;;32.20;19.40;;;;;;;28.65;49.75;100115.09;5109632;28;20430;-42
2022/08/05 06:21:22;;;;;;;32.13;19.33;;;;;;;29.02;48.94;100112.16;5110472;28;20088;-42
2022/08/05 06:23:47;;;;;;;32.55;19.42;;;;;;;29.40;48.18;100110.81;5111094;28;20039;-43
2022/08/05 06:26:13;;;;;;;26.98;16.58;;;;;;;29.66;47.60;100118.75;5110290;28;20431;-44
2022/08/05 06:28:41;;;;;;;29.80;20.38;;;;;;;29.95;47.04;100115.63;5092199;28;20570;-42
2022/08/05 06:31:06;;;;;;;32.83;18.38;;;;;;;30.05;46.50;100097.53;5111409;28;20134;-42
2022/08/05 06:33:32;;;;;;;28.10;18.08;;;;;;;30.36;45.77;100119.16;5109862;28;20605;-42
2022/08/05 06:35:58;;;;;;;34.50;18.02;;;;;;;31.09;44.32;100124.44;5110882;28;20047;-43
2022/08/05 06:38:23;;;;;;;27.80;18.77;;;;;;;31.77;42.90;100107.66;5110468;28;20059;-44
2022/08/05 06:40:49;;;;;;;19.35;15.25;;;;;;;32.64;41.44;100130.47;5111166;28;20036;-43
2022/08/05 06:43:15;;;;;;;24.70;16.60;;;;;;;33.35;40.10;100137.09;5110986;28;20126;-43
2022/08/05 06:45:41;;;;;;;26.60;17.58;;;;;;;33.98;39.02;100129.13;5111248;28;20088;-43
2022/08/05 06:48:06;;;;;;;28.55;19.33;;;;;;;34.58;37.58;100135.91;5110569;28;20138;-47
2022/08/05 06:50:32;;;;;;;27.17;17.67;;;;;;;35.18;36.38;100132.56;5110399;28;20055;-42
2022/08/05 06:52:58;;;;;;;27.27;18.48;;;;;;;35.18;36.20;100131.75;5110130;28;20257;-42
2022/08/05 06:55:24;;;;;;;27.55;18.13;;;;;;;35.95;34.80;100134.13;5110164;28;20046;-43
2022/08/05 06:57:49;;;;;;;27.13;16.17;;;;;;;36.83;33.07;100127.47;5110999;28;20073;-44
2022/08/05 07:00:17;;;;;;;27.88;16.38;;;;;;;37.58;32.04;100132.22;5093118;28;20054;-44
2022/08/05 07:02:44;;;;;;;23.98;14.15;;;;;;;38.40;30.60;100133.16;5110703;28;20042;-42
2022/08/05 07:05:10;;;;;;;23.65;14.98;;;;;;;39.07;29.70;100135.03;5108961;28;20042;-43
2022/08/05 07:07:40;;;;;;;23.55;16.35;;;;;;;39.71;28.17;100144.50;5109465;28;20054;-42
2022/08/05 07:10:07;;;;;;;24.08;16.25;;;;;;;39.76;27.56;100115.53;5109165;28;20526;-45
2022/08/05 07:18:02;;;;;;;19.00;13.88;;;;;;;41.04;25.92;100142.13;5108801;28;20042;-44
2022/08/05 07:20:28;;;;;;;14.88;12.57;;;;;;;41.55;24.98;100110.44;5107115;28;20445;-43
2022/08/05 07:22:53;;;;;;;16.45;11.02;;;;;;;42.13;23.74;100129.25;5108898;28;20131;-45
2022/08/05 07:25:19;;;;;;;16.17;8.98;;;;;;;41.88;22.93;100140.56;5109114;28;20483;-44
2022/08/05 07:27:45;;;;;;;16.10;9.18;;;;;;;41.88;22.69;100134.25;5110523;28;20093;-46
2022/08/05 07:30:12;;;;;;;13.80;8.40;;;;;;;41.53;22.05;100143.44;5109154;28;20039;-45
2022/08/05 07:32:37;;;;;;;12.77;7.95;;;;;;;40.36;22.45;100137.22;5105580;28;20039;-42
2022/08/05 07:35:11;;;;;;;14.80;7.68;;;;;;;40.46;21.99;100129.28;5105782;28;20507;-46
2022/08/05 07:37:37;;;;;;;8.60;7.60;;;;;;;40.14;22.34;100130.69;5098693;28;20108;-45
2022/08/05 07:40:05;;;;;;;9.32;8.25;;;;;;;39.80;22.85;100124.06;5102510;28;20039;-45
2022/08/05 07:42:31;;;;;;;11.80;7.85;;;;;;;40.10;22.79;100119.41;5109945;28;20092;-47
2022/08/05 07:44:57;;;;;;;9.75;7.97;;;;;;;40.02;22.61;100121.66;5108567;28;20444;-46
2022/08/05 07:47:22;;;;;;;12.75;7.28;;;;;;;39.40;23.01;100123.78;5107844;28;20035;-42
2022/08/05 07:49:51;;;;;;;19.60;8.50;;;;;;;39.38;23.24;100115.00;5108368;28;20035;-42
2022/08/05 07:52:20;;;;;;;10.73;7.93;;;;;;;39.87;22.52;100119.38;5085767;28;20583;-40
2022/08/05 07:54:46;;;;;;;10.70;8.07;;;;;;;40.66;21.86;100111.78;5109919;28;20449;-42
2022/08/05 07:57:12;;;;;;;11.68;8.40;;;;;;;40.61;21.97;100123.38;5113349;28;20525;-41
2022/08/05 07:59:38;;;;;;;12.07;8.63;;;;;;;39.86;22.35;100116.88;5111007;28;20067;-41
2022/08/05 08:02:05;;;;;;;12.38;9.30;;;;;;;39.58;22.80;100106.56;5105300;28;20042;-41
2022/08/05 08:04:32;;;;;;;10.68;7.82;;;;;;;39.87;22.42;100108.47;5105847;28;20509;-40
2022/08/05 08:06:59;;;;;;;9.90;7.63;;;;;;;39.84;22.29;100110.81;5102973;28;20063;-40
2022/08/05 08:09:26;;;;;;;14.32;8.23;;;;;;;40.02;22.40;100111.59;5112734;28;20537;-41
2022/08/05 08:11:51;;;;;;;10.68;7.65;;;;;;;40.31;21.86;100100.84;5109251;28;20130;-45
2022/08/05 08:14:17;;;;;;;13.82;7.68;;;;;;;41.56;21.04;100087.50;5105593;28;20138;-42
2022/08/05 08:16:43;;;;;;;11.65;8.02;;;;;;;42.84;20.20;100112.06;5113961;28;20038;-42
2022/08/05 08:19:09;;;;;;;14.73;6.75;;;;;;;43.37;18.88;100113.28;5110998;28;20431;-45
2022/08/05 08:21:34;;;;;;;9.23;7.45;;;;;;;43.62;19.38;100110.00;5101685;28;20089;-42
2022/08/05 08:24:00;;;;;;;12.80;8.13;;;;;;;44.12;18.51;100109.69;5109061;28;20047;-44
2022/08/05 08:26:26;;;;;;;9.75;7.72;;;;;;;44.05;18.46;100093.44;5113007;28;20096;-41
2022/08/05 08:28:52;;;;;;;9.98;6.93;;;;;;;44.86;18.08;100115.16;5112762;28;20100;-42
2022/08/05 08:31:17;;;;;;;9.63;7.57;;;;;;;45.59;17.52;100105.84;5113025;27;20485;-43
2022/08/05 08:33:43;;;;;;;13.73;7.70;;;;;;;46.35;17.00;100122.38;5112261;28;20074;-42
2022/08/05 08:36:09;;;;;;;11.67;7.77;;;;;;;45.28;17.17;100112.31;5113168;28;20554;-43
2022/08/05 08:38:35;;;;;;;8.93;7.35;;;;;;;45.19;17.02;100105.69;5111890;28;20032;-44
2022/08/05 08:41:04;;;;;;;8.52;7.53;;;;;;;44.92;17.24;100108.56;5108853;28;20092;-44
2022/08/05 08:43:32;;;;;;;12.95;7.43;;;;;;;44.38;17.50;100089.59;5107569;28;20043;-42
2022/08/05 08:46:00;;;;;;;8.52;7.25;;;;;;;45.04;17.46;100115.53;5100076;28;20048;-41
2022/08/05 08:48:27;;;;;;;10.43;7.20;;;;;;;46.00;17.17;100111.38;5120082;27;20086;-43
2022/08/05 08:50:53;;;;;;;;;;;;;;;45.51;16.80;100104.44;5084744;28;20052;-44
2022/08/05 08:53:20;;;;;;;10.47;7.20;;;;;;;45.34;16.93;100102.97;5087279;28;20015;-45
2022/08/05 08:55:46;;;;;;;9.85;7.03;;;;;;;45.85;16.07;100106.72;5099976;28;20043;-45
2022/08/05 08:58:14;;;;;;;7.68;6.97;;;;;;;46.09;16.38;100109.72;5106596;28;20040;-46
2022/08/05 09:00:41;;;;;;;8.55;7.20;;;;;;;46.87;15.78;100111.00;5106947;28;20499;-46
2022/08/05 09:03:07;;;;;;;11.02;7.22;;;;;;;46.69;15.89;100104.16;5108452;28;20414;-43
2022/08/05 09:05:33;;;;;;;7.80;6.47;;;;;;;46.55;15.54;100110.53;5107296;28;20046;-46
2022/08/05 09:07:59;;;;;;;8.33;7.30;;;;;;;46.61;15.54;100101.16;5106316;28;20046;-43
2022/08/05 09:10:25;;;;;;;9.13;6.97;;;;;;;47.16;14.92;100100.97;5111808;28;20039;-43
2022/08/05 09:12:51;;;;;;;9.77;7.53;;;;;;;47.13;14.86;100096.03;5111324;28;20035;-42
2022/08/05 09:15:16;;;;;;;7.93;7.10;;;;;;;46.38;15.37;100077.78;5111168;28;20035;-41
2022/08/05 09:17:42;;;;;;;8.27;7.47;;;;;;;46.38;15.33;100099.00;5107254;28;20534;-46
2022/08/05 09:20:09;;;;;;;8.13;6.85;;;;;;;45.51;16.12;100087.94;5105713;28;20084;-42
2022/08/05 09:23:04;;;;;;;9.63;6.90;;;;;;;46.10;15.79;100079.19;5105614;28;20092;-46
2022/08/05 09:25:29;;;;;;;7.75;6.95;;;;;;;47.24;15.48;100087.72;5110284;28;20139;-45
2022/08/05 09:27:55;;;;;;;8.70;8.00;;;;;;;47.92;14.71;100086.72;5112258;28;20122;-45
2022/08/05 09:30:21;;;;;;;7.65;6.95;;;;;;;48.55;14.58;100078.41;5085186;28;20043;-45
2022/08/05 09:32:47;;;;;;;6.75;6.10;;;;;;;48.15;14.80;100078.81;5109025;28;20092;-42
2022/08/05 09:35:15;;;;;;;9.93;8.93;;;;;;;47.26;15.15;100056.03;5108807;28;20510;-42
2022/08/05 09:37:51;;;;;;;10.63;9.02;;;;;;;48.05;14.78;100077.00;5111232;28;20096;-43
2022/08/05 09:40:33;;;;;;;9.35;8.55;;;;;;;48.74;14.39;100087.59;5104749;28;20044;-42
2022/08/05 09:43:00;;;;;;;11.07;8.43;;;;;;;47.86;14.15;100067.75;5102780;28;20101;-47
2022/08/05 09:45:37;;;;;;;8.65;7.60;;;;;;;47.11;14.65;100073.44;5109523;28;20069;-46
2022/08/05 09:48:26;;;;;;;8.98;8.00;;;;;;;47.41;14.95;100055.94;5098870;28;20066;-43
2022/08/05 09:50:57;;;;;;;9.68;8.05;;;;;;;46.65;14.95;100056.28;5066957;28;20104;-46
2022/08/05 09:53:24;;;;;;;9.93;8.25;;;;;;;45.93;15.58;100037.41;5110993;28;20146;-43
2022/08/05 09:55:52;;;;;;;10.30;8.20;;;;;;;47.45;14.85;100068.03;5109719;28;21366;-46
2022/08/05 09:58:18;;;;;;;9.77;8.10;;;;;;;48.35;14.48;100071.19;5108262;28;20058;-47
2022/08/05 10:00:58;;;;;;;11.13;8.67;;;;;;;49.11;14.04;100075.00;5106485;28;20495;-48
2022/08/05 10:03:25;;;;;;;9.30;8.40;;;;;;;49.44;13.86;100043.56;5110353;28;20071;-42
2022/08/05 10:06:20;;;;;;;8.73;7.10;;;;;;;48.76;14.29;100065.22;5108600;28;20043;-42
2022/08/05 10:08:45;;;;;;;9.35;7.25;;;;;;;46.30;15.77;100048.94;5088131;28;20544;-43
2022/08/05 10:11:15;;;;;;;9.93;9.00;;;;;;;45.08;16.32;100056.22;5110135;28;20039;-44
2022/08/05 10:13:42;;;;;;;11.40;7.45;;;;;;;43.79;18.29;100064.97;5108095;28;20054;-45
2022/08/05 10:16:27;;;;;;;11.48;10.30;;;;;;;43.57;17.79;100053.25;5102483;28;20039;-44
2022/08/05 10:18:53;;;;;;;8.50;7.60;;;;;;;45.46;16.52;100057.72;5104231;28;20075;-44
2022/08/05 10:21:19;;;;;;;9.85;8.75;;;;;;;46.97;16.15;100049.56;5105845;28;20047;-48
2022/08/05 10:23:47;;;;;;;10.15;8.77;;;;;;;47.73;14.17;100029.81;5094713;28;20039;-44
2022/08/05 10:26:13;;;;;;;9.65;8.85;;;;;;;48.31;14.84;100044.44;5099390;28;20420;-44
2022/08/05 10:28:40;;;;;;;10.10;8.50;;;;;;;49.06;14.55;100059.31;5108109;28;20100;-42
2022/08/05 10:31:07;;;;;;;16.20;13.35;;;;;;;49.59;13.97;100057.16;5109968;28;20422;-41
2022/08/05 10:33:34;;;;;;;10.23;9.20;;;;;;;50.10;13.26;100058.25;5109886;28;20036;-41
2022/08/05 10:36:03;;;;;;;9.65;8.43;;;;;;;49.82;12.62;100060.94;5108090;28;20036;-42
2022/08/05 10:38:30;;;;;;;9.80;8.75;;;;;;;49.72;12.84;100058.34;5110536;28;20457;-41
2022/08/05 10:41:11;;;;;;;13.40;12.07;;;;;;;49.84;13.06;100063.38;5107182;28;20039;-39
2022/08/05 10:43:45;;;;;;;11.75;10.68;;;;;;;49.06;13.34;100055.72;5107148;28;20062;-41
2022/08/05 10:46:13;;;;;;;9.90;9.10;;;;;;;49.29;13.39;100057.59;5099150;28;20053;-40
2022/08/05 10:48:40;;;;;;;10.75;9.77;;;;;;;49.62;13.04;100059.28;5109046;28;20122;-39
2022/08/05 10:51:10;;;;;;;10.27;9.02;;;;;;;49.26;12.66;100058.19;5106969;28;20109;-39
2022/08/05 10:53:44;;;;;;;10.40;9.40;;;;;;;48.60;12.90;100042.47;5107615;28;20088;-39
2022/08/05 10:56:16;;;;;;;9.30;8.35;;;;;;;48.93;13.14;100050.91;5109696;28;20043;-40
2022/08/05 10:59:04;;;;;;;10.15;9.25;;;;;;;48.45;13.01;100048.16;5109536;28;20146;-40
2022/08/05 11:01:42;;;;;;;10.68;9.75;;;;;;;48.92;13.09;100040.97;5094947;28;20118;-41
2022/08/05 11:04:30;;;;;;;10.52;9.63;;;;;;;49.43;12.76;100041.94;5110428;28;20039;-41
2022/08/05 11:06:56;;;;;;;9.52;8.75;;;;;;;48.85;13.13;100044.09;5109404;28;20116;-42
2022/08/05 11:09:27;;;;;;;10.17;9.27;;;;;;;48.64;13.28;100039.94;5109323;28;20502;-42
2022/08/05 11:11:54;;;;;;;10.27;9.25;;;;;;;48.91;13.23;100042.91;5110221;28;20784;-43
2022/08/05 11:14:27;;;;;;;12.80;11.68;;;;;;;49.46;13.13;100044.09;5110043;28;20084;-43
2022/08/05 11:17:17;;;;;;;10.52;9.13;;;;;;;49.32;13.13;100039.59;5107799;28;20123;-41
2022/08/05 11:19:47;;;;;;;10.13;9.15;;;;;;;48.84;13.86;100036.94;5099240;28;20492;-40
2022/08/05 11:22:41;;;;;;;9.85;9.07;;;;;;;49.21;13.25;100033.41;5089106;28;20036;-40
2022/08/05 11:25:27;;;;;;;11.85;10.77;;;;;;;49.63;12.81;100027.75;5098320;28;20051;-40